Doris, Washington
Current Conditions -  °F | °C
As of 8:56 AM on Tuesday 21 Oct 2014 (Local Time) from K1YT Reporting Station
Scattered Clouds Scattered Clouds  
Wind Chill: 45°   Ceiling: Unl
Heat Index: 45°   Visibility: 10mi
Dew Point: 42°   Wind: 2mph
Humidity: 91%   Direction: 350°N
Pressure: 29.92"   Gusts: NA
Location:  46.8679°N, 120.008°W
Report Text: K1YT 211556Z AUTO 35002KT 10SM SCT170 07/06 A2992 RMK AO2 SLPNO T00700057
Loading
Personal Weather Stations






























Interactive Weather Map
Tropical Storm Tracking
New forecast layout! Learn more

10-Day Weather Forecast

Advertisements
Track Severe Weather on mobile